createdAt,value
2023-04-30T00:00:39.796Z,8.70
2023-04-30T00:03:07.820Z,8.45
2023-04-30T00:05:36.255Z,8.05
2023-04-30T00:08:05.215Z,8.15
2023-04-30T00:10:33.238Z,8.25
2023-04-30T00:13:01.349Z,8.27
2023-04-30T00:15:29.215Z,7.97
2023-04-30T00:17:57.324Z,9.13
2023-04-30T00:20:26.058Z,7.15
2023-04-30T00:22:54.211Z,9.07
2023-04-30T00:25:24.730Z,7.55
2023-04-30T00:27:53.157Z,8.45
2023-04-30T00:30:21.014Z,7.95
2023-04-30T00:32:49.010Z,9.63
2023-04-30T00:35:19.953Z,9.68
2023-04-30T00:37:47.949Z,9.27
2023-04-30T00:40:16.761Z,8.20
2023-04-30T00:42:44.999Z,9.10
2023-04-30T00:45:12.895Z,8.60
2023-04-30T00:47:41.534Z,9.43
2023-04-30T00:50:10.368Z,9.27
2023-04-30T00:52:38.765Z,8.77
2023-04-30T00:55:07.476Z,7.53
2023-04-30T00:57:37.095Z,9.07
2023-04-30T01:00:06.524Z,8.63
2023-04-30T01:02:35.710Z,9.43
2023-04-30T01:05:05.089Z,24.88
2023-04-30T01:07:36.292Z,11.48
2023-04-30T01:10:06.154Z,9.18
2023-04-30T01:12:49.926Z,9.40
2023-04-30T01:15:55.537Z,7.97
2023-04-30T01:18:33.957Z,9.05
2023-04-30T01:21:09.534Z,7.65
2023-04-30T01:23:55.534Z,7.88
2023-04-30T01:27:18.766Z,7.13
2023-04-30T01:29:46.728Z,8.15
2023-04-30T01:32:14.950Z,7.50
2023-04-30T01:34:43.164Z,8.13
2023-04-30T01:37:25.220Z,7.65
2023-04-30T01:40:40.957Z,8.10
2023-04-30T01:43:37.283Z,8.40
2023-04-30T01:46:27.715Z,7.00
2023-04-30T01:49:37.901Z,9.57
2023-04-30T01:52:20.982Z,8.07
2023-04-30T01:55:04.427Z,9.15
2023-04-30T01:57:43.862Z,7.72
2023-04-30T02:00:12.834Z,7.43
2023-04-30T02:02:44.414Z,8.85
2023-04-30T02:05:12.293Z,7.40
2023-04-30T02:07:45.850Z,8.50
2023-04-30T02:10:13.869Z,8.15
2023-04-30T02:12:42.762Z,9.32
2023-04-30T02:15:11.971Z,7.93
2023-04-30T02:17:42.400Z,9.55
2023-04-30T02:20:11.153Z,8.52
2023-04-30T02:22:39.596Z,8.85
2023-04-30T02:25:08.412Z,8.55
2023-04-30T02:27:36.410Z,9.32
2023-04-30T02:30:05.324Z,7.82
2023-04-30T02:32:33.471Z,8.48
2023-04-30T02:35:01.690Z,7.95
2023-04-30T02:37:29.723Z,8.07
2023-04-30T02:39:58.078Z,9.15
2023-04-30T02:42:26.707Z,7.82
2023-04-30T02:44:54.716Z,10.38
2023-04-30T02:47:22.920Z,9.18
2023-04-30T02:49:50.849Z,9.68
2023-04-30T02:52:18.976Z,8.43
2023-04-30T02:54:47.144Z,10.50
2023-04-30T02:57:15.095Z,9.38
2023-04-30T02:59:46.288Z,10.15
2023-04-30T03:02:15.229Z,8.55
2023-04-30T03:04:43.317Z,9.60
2023-04-30T03:07:11.760Z,8.68
2023-04-30T03:09:39.772Z,7.72
2023-04-30T03:12:07.786Z,8.57
2023-04-30T03:14:35.815Z,8.52
2023-04-30T03:17:03.923Z,7.63
2023-04-30T03:19:32.112Z,8.35
2023-04-30T03:22:00.119Z,7.68
2023-04-30T03:24:28.152Z,6.38
2023-04-30T03:26:56.202Z,8.18
2023-04-30T03:29:24.906Z,7.80
2023-04-30T03:31:53.195Z,8.80
2023-04-30T03:34:21.137Z,6.38
2023-04-30T03:36:49.090Z,8.57
2023-04-30T03:39:17.139Z,8.15
2023-04-30T03:41:45.108Z,8.18
2023-04-30T03:44:16.059Z,6.85
2023-04-30T03:46:44.483Z,9.23
2023-04-30T03:49:12.435Z,8.63
2023-04-30T03:51:42.262Z,8.13
2023-04-30T03:54:10.471Z,8.30
2023-04-30T03:56:39.152Z,7.72
2023-04-30T03:59:07.601Z,7.20
2023-04-30T04:01:35.639Z,7.72
2023-04-30T04:04:04.795Z,6.95
2023-04-30T04:06:34.256Z,6.97
2023-04-30T04:09:02.206Z,9.05
2023-04-30T04:11:30.400Z,6.65
2023-04-30T04:13:58.927Z,8.30
2023-04-30T04:16:27.601Z,6.82
2023-04-30T04:18:56.115Z,9.27
2023-04-30T04:21:24.171Z,6.82
2023-04-30T04:23:52.447Z,7.57
2023-04-30T04:26:21.881Z,7.57
2023-04-30T04:28:50.674Z,10.52
2023-04-30T04:31:18.884Z,7.68
2023-04-30T04:33:47.048Z,8.93
2023-04-30T04:36:16.428Z,6.93
2023-04-30T04:38:44.408Z,7.47
2023-04-30T04:41:12.795Z,7.15
2023-04-30T04:43:41.399Z,7.18
2023-04-30T04:46:11.681Z,6.93
2023-04-30T04:48:41.031Z,7.28
2023-04-30T04:51:10.425Z,6.38
2023-04-30T04:53:38.692Z,7.03
2023-04-30T04:56:07.426Z,6.80
2023-04-30T04:58:35.912Z,7.63
2023-04-30T05:01:07.060Z,7.70
2023-04-30T05:03:39.371Z,7.32
2023-04-30T05:06:07.399Z,7.28
2023-04-30T05:08:35.644Z,6.35
2023-04-30T05:11:04.998Z,6.80
2023-04-30T05:13:33.017Z,5.95
2023-04-30T05:16:01.089Z,7.05
2023-04-30T05:18:29.302Z,6.60
2023-04-30T05:20:57.472Z,7.22
2023-04-30T05:23:25.794Z,5.93
2023-04-30T05:25:54.104Z,7.28
2023-04-30T05:28:22.112Z,5.78
2023-04-30T05:30:50.034Z,6.90
2023-04-30T05:33:18.244Z,5.43
2023-04-30T05:35:46.382Z,7.13
2023-04-30T05:38:14.282Z,7.40
2023-04-30T05:40:42.256Z,6.90
2023-04-30T05:43:10.372Z,6.90
2023-04-30T05:45:39.925Z,7.32
2023-04-30T05:48:08.534Z,7.57
2023-04-30T05:50:37.094Z,7.68
2023-04-30T05:53:05.000Z,6.75
2023-04-30T05:55:33.523Z,6.90
2023-04-30T05:58:01.555Z,7.28
2023-04-30T06:00:30.059Z,6.70
2023-04-30T06:02:58.574Z,6.95
2023-04-30T06:05:26.891Z,7.68
2023-04-30T06:07:54.991Z,9.02
2023-04-30T06:10:23.478Z,8.55
2023-04-30T06:12:51.754Z,9.15
2023-04-30T06:15:20.353Z,7.47
2023-04-30T06:17:48.548Z,6.63
2023-04-30T06:20:16.978Z,7.20
2023-04-30T06:22:45.695Z,7.75
2023-04-30T06:25:13.984Z,8.85
2023-04-30T06:27:42.257Z,9.52
2023-04-30T06:30:10.943Z,9.52
2023-04-30T06:32:39.498Z,10.18
2023-04-30T06:35:08.216Z,11.02
2023-04-30T06:37:38.227Z,11.45
2023-04-30T06:40:07.877Z,9.30
2023-04-30T06:42:36.248Z,9.48
2023-04-30T06:45:06.858Z,10.32
2023-04-30T06:47:36.957Z,9.63
2023-04-30T06:50:05.913Z,11.35
2023-04-30T06:52:33.986Z,10.85
2023-04-30T06:55:02.681Z,10.70
2023-04-30T06:57:31.388Z,13.15
2023-04-30T06:59:59.325Z,13.32
2023-04-30T07:02:28.088Z,11.77
2023-04-30T07:04:56.376Z,13.52
2023-04-30T07:07:24.729Z,14.38
2023-04-30T07:09:54.067Z,15.00
2023-04-30T07:12:22.675Z,13.05
2023-04-30T07:14:50.752Z,15.98
2023-04-30T07:17:19.005Z,15.02
2023-04-30T07:19:47.186Z,14.10
2023-04-30T07:22:15.534Z,14.52
2023-04-30T07:24:43.760Z,14.68
2023-04-30T07:27:11.875Z,15.38
2023-04-30T07:29:40.406Z,15.90
2023-04-30T07:32:10.175Z,15.52
2023-04-30T07:34:38.502Z,16.75
2023-04-30T07:37:07.076Z,13.73
2023-04-30T07:39:37.265Z,13.50
2023-04-30T07:42:07.057Z,14.93
2023-04-30T07:44:35.106Z,15.50
2023-04-30T07:47:03.667Z,14.05
2023-04-30T07:49:33.926Z,14.57
2023-04-30T07:52:02.277Z,15.80
2023-04-30T07:54:31.044Z,18.05
2023-04-30T07:56:59.461Z,18.85
2023-04-30T07:59:27.967Z,16.10
2023-04-30T08:01:56.460Z,18.63
2023-04-30T08:04:25.473Z,17.00
2023-04-30T08:06:53.809Z,19.55
2023-04-30T08:09:22.181Z,18.60
2023-04-30T08:11:50.880Z,19.15
2023-04-30T08:14:20.716Z,18.02
2023-04-30T08:16:49.092Z,15.55
2023-04-30T08:19:17.805Z,18.35
2023-04-30T08:21:46.557Z,17.13
2023-04-30T08:24:15.658Z,17.00
2023-04-30T08:26:44.712Z,19.48
2023-04-30T08:29:12.945Z,19.30
2023-04-30T08:31:41.415Z,18.55
2023-04-30T08:34:09.682Z,18.83
2023-04-30T08:36:38.163Z,18.00
2023-04-30T08:39:06.991Z,19.15
2023-04-30T08:41:36.868Z,20.15
2023-04-30T08:44:07.595Z,20.98
2023-04-30T08:46:38.985Z,21.52
2023-04-30T08:49:07.613Z,19.73
2023-04-30T08:51:36.586Z,20.08
2023-04-30T08:54:04.852Z,21.10
2023-04-30T08:56:34.602Z,23.60
2023-04-30T08:59:03.550Z,18.80
2023-04-30T09:01:32.069Z,21.27
2023-04-30T09:04:00.622Z,20.38
2023-04-30T09:06:28.898Z,19.05
2023-04-30T09:08:57.713Z,21.02
2023-04-30T09:11:29.293Z,18.60
2023-04-30T09:14:00.861Z,15.35
2023-04-30T09:16:33.247Z,16.23
2023-04-30T09:19:06.063Z,17.80
2023-04-30T09:21:36.790Z,14.75
2023-04-30T09:24:07.359Z,15.80
2023-04-30T09:26:38.857Z,18.05
2023-04-30T09:29:10.929Z,16.67
2023-04-30T09:31:44.554Z,17.83
2023-04-30T09:34:13.315Z,15.93
2023-04-30T09:36:55.300Z,17.67
2023-04-30T09:39:23.730Z,16.85
2023-04-30T09:41:54.808Z,17.25
2023-04-30T09:44:46.515Z,15.15
2023-04-30T09:47:21.240Z,15.35
2023-04-30T09:49:54.391Z,14.60
2023-04-30T09:52:22.661Z,13.77
2023-04-30T09:54:50.776Z,15.30
2023-04-30T09:57:24.648Z,13.88
2023-04-30T09:59:54.141Z,14.30
2023-04-30T10:02:24.154Z,13.40
2023-04-30T10:04:58.533Z,14.35
2023-04-30T10:07:36.063Z,11.70
2023-04-30T10:10:10.044Z,12.45
2023-04-30T10:12:54.644Z,11.85
2023-04-30T10:15:31.507Z,12.05
2023-04-30T10:18:39.301Z,11.75
2023-04-30T10:21:13.019Z,11.57
2023-04-30T10:23:43.757Z,9.90
2023-04-30T10:26:12.942Z,9.30
2023-04-30T10:28:42.394Z,9.75
2023-04-30T10:31:12.126Z,10.57
2023-04-30T10:34:19.906Z,9.65
2023-04-30T10:36:55.544Z,9.75
2023-04-30T10:39:28.053Z,8.80
2023-04-30T10:42:04.414Z,10.95
2023-04-30T10:44:38.120Z,9.82
2023-04-30T10:47:08.832Z,9.32
2023-04-30T10:49:37.160Z,10.88
2023-04-30T10:52:06.311Z,10.52
2023-04-30T10:54:37.792Z,9.70
2023-04-30T10:57:20.416Z,14.02
2023-04-30T10:59:53.813Z,10.75
2023-04-30T11:02:22.133Z,8.13
2023-04-30T11:05:09.418Z,9.90
2023-04-30T11:07:38.581Z,10.48
2023-04-30T11:10:09.844Z,9.65
2023-04-30T11:12:47.566Z,8.85
2023-04-30T11:15:20.235Z,8.88
2023-04-30T11:17:51.952Z,9.00
2023-04-30T11:23:38.513Z,8.68
2023-04-30T11:26:08.957Z,7.68
2023-04-30T11:28:38.655Z,6.07
2023-04-30T11:31:07.892Z,11.68
2023-04-30T11:33:36.540Z,8.13
2023-04-30T11:36:06.738Z,7.45
2023-04-30T11:38:37.310Z,8.82
2023-04-30T11:41:06.706Z,8.45
2023-04-30T11:43:35.782Z,7.82
2023-04-30T11:46:13.703Z,7.32
2023-04-30T11:48:45.131Z,7.95
2023-04-30T11:51:27.007Z,7.45
2023-04-30T11:56:25.831Z,7.30
2023-04-30T11:58:56.199Z,6.00
2023-04-30T12:01:28.764Z,5.78
2023-04-30T12:03:58.025Z,7.45
2023-04-30T12:06:31.530Z,5.60
2023-04-30T12:09:03.817Z,6.47
2023-04-30T12:11:32.920Z,6.68
2023-04-30T12:14:10.954Z,5.90
2023-04-30T12:16:46.121Z,6.28
2023-04-30T12:19:14.258Z,7.03
2023-04-30T12:21:47.489Z,5.93
2023-04-30T12:24:18.659Z,6.45
2023-04-30T12:26:48.222Z,5.68
2023-04-30T12:29:18.949Z,5.03
2023-04-30T12:31:51.540Z,5.28
2023-04-30T12:34:19.750Z,4.60
2023-04-30T12:36:47.729Z,4.80
2023-04-30T12:39:16.617Z,5.65
2023-04-30T12:41:48.857Z,7.15
2023-04-30T12:44:22.011Z,6.72
2023-04-30T12:46:53.628Z,7.47
2023-04-30T12:52:02.781Z,4.75
2023-04-30T12:54:38.279Z,4.70
2023-04-30T12:57:09.962Z,4.25
2023-04-30T13:02:13.694Z,3.90
2023-04-30T13:04:43.173Z,4.25
2023-04-30T13:07:11.832Z,3.75
2023-04-30T13:09:39.934Z,3.72
2023-04-30T13:12:08.085Z,3.45
2023-04-30T13:14:36.792Z,3.80
2023-04-30T13:17:07.530Z,3.10
2023-04-30T13:19:36.307Z,3.25
2023-04-30T13:22:04.412Z,2.60
2023-04-30T13:24:32.556Z,2.78
2023-04-30T13:27:00.690Z,2.50
2023-04-30T13:29:28.845Z,2.92
2023-04-30T13:31:57.065Z,3.25
2023-04-30T13:34:25.424Z,3.05
2023-04-30T13:36:53.632Z,4.32
2023-04-30T13:39:22.606Z,4.53
2023-04-30T13:41:50.971Z,3.10
2023-04-30T13:44:19.283Z,4.60
2023-04-30T13:46:47.269Z,3.25
2023-04-30T13:49:16.323Z,3.55
2023-04-30T13:51:44.442Z,3.05
2023-04-30T13:54:12.975Z,2.47
2023-04-30T13:56:41.564Z,2.10
2023-04-30T13:59:09.793Z,2.67
2023-04-30T14:01:37.896Z,2.50
2023-04-30T14:04:06.457Z,2.47
2023-04-30T14:06:34.849Z,4.30
2023-04-30T14:09:03.084Z,2.67
2023-04-30T14:11:31.483Z,2.53
2023-04-30T14:13:59.480Z,2.20
2023-04-30T14:16:27.812Z,1.75
2023-04-30T14:18:56.336Z,4.03
2023-04-30T14:21:24.409Z,2.78
2023-04-30T14:23:52.416Z,5.68
2023-04-30T14:26:21.890Z,5.15
2023-04-30T14:28:51.031Z,3.83
2023-04-30T14:31:19.060Z,3.88
2023-04-30T14:33:47.346Z,4.35
2023-04-30T14:36:15.697Z,2.90
2023-04-30T14:38:44.229Z,2.80
2023-04-30T14:41:14.077Z,2.45
2023-04-30T14:43:42.569Z,2.83
2023-04-30T14:46:12.054Z,2.53
2023-04-30T14:48:40.632Z,3.10
2023-04-30T14:51:08.848Z,2.75
2023-04-30T14:53:37.813Z,2.47
2023-04-30T14:56:07.258Z,4.55
2023-04-30T14:58:35.309Z,5.32
2023-04-30T15:01:03.824Z,5.15
2023-04-30T15:03:32.260Z,5.47
2023-04-30T15:06:00.990Z,2.92
2023-04-30T15:08:29.217Z,3.67
2023-04-30T15:10:58.034Z,4.57
2023-04-30T15:13:26.220Z,2.90
2023-04-30T15:15:54.842Z,3.33
2023-04-30T15:18:23.639Z,3.30
2023-04-30T15:22:07.990Z,3.20
2023-04-30T15:24:36.546Z,2.60
2023-04-30T15:27:05.448Z,2.40
2023-04-30T15:29:33.984Z,2.38
2023-04-30T15:32:03.832Z,2.60
2023-04-30T15:34:32.180Z,2.30
2023-04-30T15:37:01.932Z,1.95
2023-04-30T15:39:30.547Z,1.83
2023-04-30T15:41:58.660Z,1.80
2023-04-30T15:44:27.589Z,2.00
2023-04-30T15:46:57.129Z,2.30
2023-04-30T15:49:25.568Z,1.35
2023-04-30T15:51:54.005Z,1.70
2023-04-30T15:54:23.470Z,1.88
2023-04-30T15:56:52.014Z,1.88
2023-04-30T15:59:21.021Z,1.90
2023-04-30T16:01:52.844Z,2.13
2023-04-30T16:04:21.352Z,1.40
2023-04-30T16:06:50.799Z,1.42
2023-04-30T16:09:20.590Z,1.60
2023-04-30T16:11:49.409Z,1.30
2023-04-30T16:14:17.503Z,1.63
2023-04-30T16:16:45.850Z,1.70
2023-04-30T16:19:15.344Z,1.73
2023-04-30T16:21:43.895Z,1.85
2023-04-30T16:24:12.985Z,1.80
2023-04-30T16:26:41.289Z,1.40
2023-04-30T16:29:09.862Z,1.60
2023-04-30T16:31:38.091Z,1.70
2023-04-30T16:34:06.479Z,2.17
2023-04-30T16:36:34.597Z,2.28
2023-04-30T16:39:02.998Z,1.25
2023-04-30T16:41:31.592Z,1.00
2023-04-30T16:43:59.655Z,1.30
2023-04-30T16:46:28.527Z,1.30
2023-04-30T16:48:56.678Z,1.35
2023-04-30T16:51:24.614Z,1.23
2023-04-30T16:53:52.627Z,1.20
2023-04-30T16:56:21.675Z,1.17
2023-04-30T16:58:50.214Z,1.05
2023-04-30T17:01:19.313Z,1.17
2023-04-30T17:03:47.731Z,1.30
2023-04-30T17:06:15.927Z,1.30
2023-04-30T17:08:44.265Z,1.15
2023-04-30T17:11:14.545Z,0.98
2023-04-30T17:13:43.880Z,1.20
2023-04-30T17:16:12.039Z,1.67
2023-04-30T17:18:40.784Z,1.27
2023-04-30T17:21:09.023Z,1.00
2023-04-30T17:23:37.328Z,1.42
2023-04-30T17:26:05.887Z,1.70
2023-04-30T17:28:33.992Z,1.45
2023-04-30T17:31:07.699Z,1.45
2023-04-30T17:33:36.467Z,1.25
2023-04-30T17:36:05.094Z,1.70
2023-04-30T17:38:33.906Z,1.38
2023-04-30T17:41:02.100Z,1.73
2023-04-30T17:43:30.329Z,1.85
2023-04-30T17:45:58.738Z,2.00
2023-04-30T17:48:27.652Z,1.83
2023-04-30T17:50:57.328Z,2.22
2023-04-30T17:53:25.665Z,2.03
2023-04-30T17:55:53.920Z,2.20
2023-04-30T17:58:22.400Z,2.05
2023-04-30T18:00:51.297Z,2.17
2023-04-30T18:03:20.091Z,2.40
2023-04-30T18:05:48.353Z,2.97
2023-04-30T18:08:16.460Z,3.35
2023-04-30T18:10:45.206Z,2.92
2023-04-30T18:13:14.573Z,3.88
2023-04-30T18:15:42.961Z,3.72
2023-04-30T18:18:11.419Z,4.90
2023-04-30T18:20:39.780Z,5.35
2023-04-30T18:23:10.193Z,5.00
2023-04-30T18:25:38.760Z,5.38
2023-04-30T18:28:08.868Z,4.70
2023-04-30T18:30:37.794Z,5.25
2023-04-30T18:33:07.471Z,5.40
2023-04-30T18:35:36.707Z,5.60
2023-04-30T18:38:06.335Z,5.18
2023-04-30T18:40:34.781Z,5.15
2023-04-30T18:43:03.821Z,4.90
2023-04-30T18:45:32.225Z,4.57
2023-04-30T18:48:00.657Z,5.20
2023-04-30T18:50:28.673Z,5.13
2023-04-30T18:52:56.698Z,6.18
2023-04-30T18:55:24.718Z,6.03
2023-04-30T18:57:53.056Z,6.72
2023-04-30T19:00:21.241Z,5.57
2023-04-30T19:02:49.661Z,6.10
2023-04-30T19:05:18.770Z,6.45
2023-04-30T19:07:47.216Z,5.75
2023-04-30T19:10:15.658Z,5.50
2023-04-30T19:12:44.158Z,4.28
2023-04-30T19:15:15.800Z,5.15
2023-04-30T19:17:45.096Z,8.05
2023-04-30T19:20:14.449Z,7.72
2023-04-30T19:22:43.101Z,5.00
2023-04-30T19:25:11.622Z,5.95
2023-04-30T19:27:42.586Z,5.90
2023-04-30T19:30:11.747Z,5.45
2023-04-30T19:32:40.066Z,5.82
2023-04-30T19:35:08.921Z,6.10
2023-04-30T19:37:37.725Z,6.43
2023-04-30T19:40:12.101Z,6.78
2023-04-30T19:42:40.605Z,7.50
2023-04-30T19:45:09.860Z,5.88
2023-04-30T19:47:38.349Z,7.05
2023-04-30T19:50:07.589Z,6.65
2023-04-30T19:52:35.766Z,7.20
2023-04-30T19:55:04.281Z,8.07
2023-04-30T19:57:35.159Z,6.35
2023-04-30T20:00:04.626Z,6.23
2023-04-30T20:02:35.481Z,7.38
2023-04-30T20:05:06.954Z,7.70
2023-04-30T20:07:35.912Z,6.47
2023-04-30T20:10:04.565Z,7.30
2023-04-30T20:12:32.591Z,7.07
2023-04-30T20:15:01.201Z,8.35
2023-04-30T20:17:29.513Z,7.47
2023-04-30T20:19:58.207Z,8.40
2023-04-30T20:22:28.293Z,6.95
2023-04-30T20:24:57.237Z,9.30
2023-04-30T20:27:25.899Z,8.70
2023-04-30T20:29:55.109Z,8.88
2023-04-30T20:32:23.591Z,7.78
2023-04-30T20:34:52.441Z,8.20
2023-04-30T20:37:20.626Z,7.88
2023-04-30T20:39:49.028Z,8.15
2023-04-30T20:42:18.042Z,8.60
2023-04-30T20:44:47.500Z,8.90
2023-04-30T20:47:16.351Z,9.07
2023-04-30T20:49:45.670Z,8.52
2023-04-30T20:52:17.585Z,9.40
2023-04-30T20:54:46.869Z,9.23
2023-04-30T20:57:15.281Z,8.77
2023-04-30T20:59:43.883Z,9.05
2023-04-30T21:02:12.325Z,10.00
2023-04-30T21:04:41.011Z,10.63
2023-04-30T21:07:09.210Z,9.23
2023-04-30T21:09:38.505Z,10.13
2023-04-30T21:12:07.934Z,9.30
2023-04-30T21:14:36.325Z,10.13
2023-04-30T21:17:04.693Z,11.02
2023-04-30T21:19:33.822Z,10.18
2023-04-30T21:22:02.123Z,13.07
2023-04-30T21:24:33.819Z,10.05
2023-04-30T21:27:02.058Z,12.18
2023-04-30T21:29:30.134Z,11.20
2023-04-30T21:31:58.576Z,12.75
2023-04-30T21:34:26.801Z,16.23
2023-04-30T21:36:55.384Z,14.40
2023-04-30T21:39:23.621Z,10.45
2023-04-30T21:41:52.663Z,9.88
2023-04-30T21:44:20.814Z,8.57
2023-04-30T21:46:49.191Z,11.77
2023-04-30T21:49:17.573Z,11.95
2023-04-30T21:51:45.680Z,10.30
2023-04-30T21:54:14.111Z,8.57
2023-04-30T21:56:42.675Z,9.93
2023-04-30T21:59:11.240Z,8.63
2023-04-30T22:01:39.363Z,6.72
2023-04-30T22:04:07.694Z,9.88
2023-04-30T22:06:36.113Z,8.23
2023-04-30T22:09:04.879Z,11.07
2023-04-30T22:11:32.868Z,10.23
2023-04-30T22:14:00.815Z,10.55
2023-04-30T22:16:29.470Z,12.13
2023-04-30T22:18:59.003Z,15.80
2023-04-30T22:21:27.871Z,11.75
2023-04-30T22:23:58.833Z,11.85
2023-04-30T22:26:27.325Z,8.70
2023-04-30T22:28:55.522Z,8.50
2023-04-30T22:31:23.649Z,6.57
2023-04-30T22:33:51.718Z,7.10
2023-04-30T22:36:19.761Z,9.43
2023-04-30T22:38:48.175Z,7.32
2023-04-30T22:41:16.272Z,8.13
2023-04-30T22:43:47.699Z,8.88
2023-04-30T22:46:16.789Z,7.45
2023-04-30T22:48:45.100Z,6.80
2023-04-30T22:51:13.115Z,6.97
2023-04-30T22:53:41.294Z,8.00
2023-04-30T22:56:09.913Z,7.20
2023-04-30T22:58:38.019Z,7.03
2023-04-30T23:01:06.754Z,6.80
2023-04-30T23:03:35.729Z,6.50
2023-04-30T23:06:04.040Z,9.10
2023-04-30T23:08:33.387Z,9.45
2023-04-30T23:11:02.773Z,8.70
2023-04-30T23:13:31.558Z,9.27
2023-04-30T23:16:01.528Z,9.00
2023-04-30T23:18:29.444Z,7.53
2023-04-30T23:20:59.041Z,8.32
2023-04-30T23:23:28.064Z,7.70
2023-04-30T23:25:56.706Z,9.50
2023-04-30T23:28:24.994Z,8.88
2023-04-30T23:30:58.066Z,10.85
2023-04-30T23:33:26.041Z,8.07
2023-04-30T23:35:54.043Z,10.63
2023-04-30T23:38:22.387Z,11.93
2023-04-30T23:40:50.480Z,8.40
2023-04-30T23:43:18.380Z,9.30
2023-04-30T23:45:46.692Z,9.20
2023-04-30T23:48:15.633Z,8.15
2023-04-30T23:50:43.643Z,8.13
2023-04-30T23:53:11.732Z,9.55
2023-04-30T23:55:41.791Z,9.57
2023-04-30T23:58:10.174Z,9.52
